Time;durP1;ratioP1;P1;durP2;ratioP2;P2;SDS_P1;SDS_P2;PMS_P1;PMS_P2;Temp;Humidity;BMP_temperature;BMP_pressure;BME280_temperature;BME280_humidity;BME280_pressure;Samples;Min_cycle;Max_cycle;Signal;HPM_P1;HPM_P2
2023/04/01 00:00:07;;;;;;;3.65;2.50;;;9.90;99.90;;;;;;5093601;28;20044;-76
2023/04/01 00:02:32;;;;;;;4.60;3.03;;;9.90;99.90;;;;;;5093552;28;20133;-76
2023/04/01 00:04:58;;;;;;;4.55;2.90;;;9.90;99.90;;;;;;5093666;28;20040;-75
2023/04/01 00:07:24;;;;;;;4.90;2.90;;;9.90;99.90;;;;;;5075625;28;20400;-76
2023/04/01 00:09:51;;;;;;;4.97;2.95;;;9.90;99.90;;;;;;5093465;28;20097;-75
2023/04/01 00:12:16;;;;;;;4.03;2.72;;;9.90;99.90;;;;;;5093850;28;20080;-75
2023/04/01 00:14:42;;;;;;;4.60;2.70;;;10.00;99.90;;;;;;5092780;28;20071;-76
2023/04/01 00:17:08;;;;;;;4.93;2.92;;;9.90;99.90;;;;;;5093242;28;20062;-75
2023/04/01 00:19:34;;;;;;;5.70;3.20;;;9.90;99.90;;;;;;5075575;28;20443;-75
2023/04/01 00:21:59;;;;;;;4.90;2.70;;;9.90;99.90;;;;;;5093322;28;20446;-75
2023/04/01 00:24:25;;;;;;;4.13;2.78;;;9.90;99.90;;;;;;5093167;28;20047;-76
2023/04/01 00:26:51;;;;;;;3.60;2.35;;;9.90;99.90;;;;;;5075328;28;20433;-76
2023/04/01 00:29:16;;;;;;;5.63;2.83;;;10.00;99.90;;;;;;5093257;28;20044;-75
2023/04/01 00:31:42;;;;;;;3.95;2.92;;;10.00;99.90;;;;;;5075751;28;20055;-75
2023/04/01 00:34:08;;;;;;;4.78;2.40;;;10.00;99.90;;;;;;5093815;28;20089;-75
2023/04/01 00:36:33;;;;;;;3.42;2.63;;;9.90;99.90;;;;;;5075471;28;20089;-75
2023/04/01 00:39:00;;;;;;;5.55;2.70;;;9.90;99.90;;;;;;5093203;28;20385;-75
2023/04/01 00:41:26;;;;;;;5.20;2.67;;;9.90;99.90;;;;;;5075713;28;20050;-75
2023/04/01 00:43:52;;;;;;;3.72;2.35;;;9.90;99.90;;;;;;5093195;28;20505;-76
2023/04/01 00:46:19;;;;;;;4.90;2.70;;;9.90;99.90;;;;;;5093171;28;20058;-76
2023/04/01 00:48:54;;;;;;;4.50;2.60;;;9.90;99.90;;;;;;5093149;28;20040;-75
2023/04/01 00:51:27;;;;;;;4.30;2.35;;;9.90;99.90;;;;;;5093965;28;20463;-76
2023/04/01 00:53:55;;;;;;;4.25;2.72;;;9.90;99.90;;;;;;5075968;28;20419;-76
2023/04/01 00:56:55;;;;;;;4.78;2.72;;;9.80;99.90;;;;;;5093081;28;20051;-75
2023/04/01 00:59:26;;;;;;;5.05;3.08;;;9.90;99.90;;;;;;5075028;28;20091;-76
2023/04/01 01:01:52;;;;;;;5.05;3.40;;;9.90;99.90;;;;;;5092746;28;20507;-76
2023/04/01 01:04:36;;;;;;;4.45;2.83;;;9.80;99.90;;;;;;5093472;28;20458;-77
2023/04/01 01:07:32;;;;;;;4.75;3.17;;;9.80;99.90;;;;;;5093693;28;20044;-76
2023/04/01 01:10:26;;;;;;;4.53;2.90;;;9.80;99.90;;;;;;5075912;28;20075;-75
2023/04/01 01:13:34;;;;;;;6.43;3.10;;;9.80;99.90;;;;;;5076693;28;20051;-75
2023/04/01 01:16:38;;;;;;;4.93;2.90;;;9.80;99.90;;;;;;4992641;28;20522;-76
2023/04/01 01:19:40;;;;;;;3.60;2.50;;;9.80;99.90;;;;;;4933377;29;20047;-75
2023/04/01 01:22:53;;;;;;;4.82;2.78;;;9.80;99.90;;;;;;5093424;28;20048;-75
2023/04/01 01:25:33;;;;;;;3.90;2.15;;;9.80;99.90;;;;;;5080988;28;20093;-76
2023/04/01 01:28:33;;;;;;;4.03;2.13;;;9.80;99.90;;;;;;5096367;28;20087;-76
2023/04/01 01:31:29;;;;;;;4.25;2.28;;;9.80;99.90;;;;;;5096641;28;20492;-75
2023/04/01 01:34:18;;;;;;;4.00;2.30;;;9.80;99.90;;;;;;5078652;28;20101;-75
2023/04/01 01:36:48;;;;;;;4.15;2.22;;;9.80;99.90;;;;;;5096294;28;20144;-75
2023/04/01 01:39:14;;;;;;;3.60;2.17;;;9.80;99.90;;;;;;5096194;28;20040;-75
2023/04/01 01:41:43;;;;;;;3.55;2.03;;;9.80;99.90;;;;;;5078295;28;20121;-75
2023/04/01 01:44:13;;;;;;;3.95;2.28;;;9.80;99.90;;;;;;5095965;28;20048;-76
2023/04/01 01:46:41;;;;;;;3.63;2.00;;;9.80;99.90;;;;;;5096801;28;20048;-76
2023/04/01 01:49:10;;;;;;;4.25;2.40;;;9.80;99.90;;;;;;5078409;28;20085;-75
2023/04/01 01:51:36;;;;;;;4.35;1.65;;;9.80;99.90;;;;;;5096307;28;20055;-77
2023/04/01 01:54:01;;;;;;;3.33;1.83;;;9.80;99.90;;;;;;5096348;28;20097;-75
2023/04/01 01:56:30;;;;;;;2.95;1.95;;;9.80;99.90;;;;;;5095912;28;20048;-76
2023/04/01 01:59:02;;;;;;;4.28;2.42;;;9.80;99.90;;;;;;5077948;28;20487;-76
2023/04/01 02:01:31;;;;;;;3.70;2.42;;;9.80;99.90;;;;;;5095808;28;20047;-76
2023/04/01 02:03:58;;;;;;;4.03;2.30;;;9.80;99.90;;;;;;5078573;28;20036;-75
2023/04/01 02:06:27;;;;;;;3.85;2.20;;;9.80;99.90;;;;;;5095678;28;20104;-76
2023/04/01 02:09:06;;;;;;;3.60;2.35;;;9.80;99.90;;;;;;5096102;28;20040;-75
2023/04/01 02:11:43;;;;;;;3.38;2.22;;;9.80;99.90;;;;;;5095613;28;20044;-75
2023/04/01 02:14:19;;;;;;;4.72;2.60;;;9.80;99.90;;;;;;5096076;28;20050;-75
2023/04/01 02:17:12;;;;;;;6.07;2.35;;;9.80;99.90;;;;;;5095753;28;20177;-76
2023/04/01 02:19:52;;;;;;;4.25;2.58;;;9.80;99.90;;;;;;5095193;28;20048;-76
2023/04/01 02:22:26;;;;;;;5.65;2.92;;;9.80;99.90;;;;;;5096022;28;20044;-76
2023/04/01 02:24:57;;;;;;;4.18;2.53;;;9.80;99.90;;;;;;5077493;28;20040;-75
2023/04/01 02:27:24;;;;;;;4.05;2.63;;;9.80;99.90;;;;;;5095783;28;20460;-75
2023/04/01 02:29:51;;;;;;;3.85;2.30;;;9.80;99.90;;;;;;5095216;28;20087;-75
2023/04/01 02:32:19;;;;;;;5.13;2.67;;;9.80;99.90;;;;;;5095108;28;20044;-75
2023/04/01 02:34:45;;;;;;;4.95;3.03;;;9.70;99.90;;;;;;5077320;28;20036;-75
2023/04/01 02:37:12;;;;;;;5.57;2.95;;;9.70;99.90;;;;;;5094339;28;20455;-75
2023/04/01 02:39:38;;;;;;;3.70;2.70;;;9.70;99.90;;;;;;5095015;28;20055;-75
2023/04/01 02:42:04;;;;;;;4.50;2.92;;;9.70;99.90;;;;;;5076718;28;20048;-76
2023/04/01 02:44:30;;;;;;;4.78;2.50;;;9.70;99.90;;;;;;5094835;28;20040;-75
2023/04/01 02:46:55;;;;;;;6.00;3.60;;;9.80;99.90;;;;;;5076736;28;20043;-76
2023/04/01 02:49:21;;;;;;;4.07;2.90;;;9.70;99.90;;;;;;5077143;28;20090;-75
2023/04/01 02:51:47;;;;;;;5.35;3.08;;;9.80;99.90;;;;;;5095099;28;20498;-75
2023/04/01 02:54:13;;;;;;;5.25;2.80;;;9.80;99.90;;;;;;5094898;28;20499;-75
2023/04/01 02:56:38;;;;;;;4.80;2.60;;;9.80;99.90;;;;;;5077095;28;20519;-75
2023/04/01 02:59:04;;;;;;;4.18;2.80;;;9.80;99.90;;;;;;5094655;28;20067;-76
2023/04/01 03:01:30;;;;;;;5.05;2.72;;;9.80;99.90;;;;;;5094557;28;20184;-75
2023/04/01 03:03:56;;;;;;;5.68;3.05;;;9.80;99.90;;;;;;5095281;28;20051;-75
2023/04/01 03:06:21;;;;;;;5.80;2.50;;;9.80;99.90;;;;;;5077197;28;20044;-75
2023/04/01 03:08:47;;;;;;;3.40;2.50;;;9.90;99.90;;;;;;5094503;28;20499;-75
2023/04/01 03:11:13;;;;;;;3.72;2.20;;;9.80;99.90;;;;;;5094076;28;20048;-76
2023/04/01 03:13:39;;;;;;;5.63;2.90;;;9.80;99.90;;;;;;5094320;28;20044;-75
2023/04/01 03:16:05;;;;;;;5.60;2.90;;;9.80;99.90;;;;;;5094355;28;20074;-74
2023/04/01 03:18:31;;;;;;;5.18;2.60;;;9.80;99.90;;;;;;5094602;28;20087;-75
2023/04/01 03:20:56;;;;;;;4.78;2.83;;;9.80;99.90;;;;;;5094719;28;20044;-76
2023/04/01 03:23:24;;;;;;;4.95;2.47;;;9.80;99.90;;;;;;5093862;28;20105;-75
2023/04/01 03:25:50;;;;;;;5.00;2.85;;;9.80;99.90;;;;;;5093962;28;20048;-75
2023/04/01 03:28:16;;;;;;;4.47;2.53;;;9.80;99.90;;;;;;5076083;28;20097;-75
2023/04/01 03:30:41;;;;;;;5.78;2.88;;;9.80;99.90;;;;;;5094397;28;20040;-75
2023/04/01 03:33:07;;;;;;;4.40;2.83;;;9.80;99.90;;;;;;5093932;28;20048;-75
2023/04/01 03:35:35;;;;;;;4.68;2.58;;;9.80;99.90;;;;;;5076097;28;20127;-75
2023/04/01 03:38:01;;;;;;;3.78;2.40;;;9.80;99.90;;;;;;5076075;28;20384;-75
2023/04/01 03:40:27;;;;;;;4.28;2.70;;;9.70;99.90;;;;;;5093887;28;20140;-76
2023/04/01 03:42:52;;;;;;;5.10;2.45;;;9.80;99.90;;;;;;5076252;28;20059;-75
2023/04/01 03:45:18;;;;;;;5.88;2.80;;;9.70;99.90;;;;;;5093742;28;20044;-76
2023/04/01 03:47:44;;;;;;;5.03;2.65;;;9.70;99.90;;;;;;5093528;28;20065;-75
2023/04/01 03:50:10;;;;;;;6.05;3.10;;;9.80;99.90;;;;;;5094365;28;20061;-74
2023/04/01 03:52:36;;;;;;;4.03;2.72;;;9.80;99.90;;;;;;5093712;28;20051;-75
2023/04/01 03:55:02;;;;;;;4.95;2.92;;;9.70;99.90;;;;;;5093596;28;20036;-75
2023/04/01 03:57:30;;;;;;;4.38;2.80;;;9.70;99.90;;;;;;5093637;28;20052;-75
2023/04/01 03:59:56;;;;;;;5.63;3.20;;;9.70;99.90;;;;;;5093628;28;20051;-74
2023/04/01 04:02:21;;;;;;;5.75;3.25;;;9.70;99.90;;;;;;5075660;28;20396;-75
2023/04/01 04:04:47;;;;;;;5.07;2.97;;;9.70;99.90;;;;;;5093995;28;20040;-75
2023/04/01 04:07:13;;;;;;;5.55;2.53;;;9.70;99.90;;;;;;5075769;28;20408;-75
2023/04/01 04:09:38;;;;;;;5.10;3.13;;;9.70;99.90;;;;;;5093518;28;20140;-75
2023/04/01 04:12:05;;;;;;;4.65;3.10;;;9.70;99.90;;;;;;5076504;28;20127;-75
2023/04/01 04:14:31;;;;;;;6.45;3.85;;;9.70;99.90;;;;;;5093402;28;20400;-75
2023/04/01 04:16:57;;;;;;;5.90;3.40;;;9.70;99.90;;;;;;5093399;28;20056;-75
2023/04/01 04:19:23;;;;;;;4.95;3.30;;;9.70;99.90;;;;;;5075652;28;20047;-75
2023/04/01 04:21:49;;;;;;;5.75;3.70;;;9.70;99.90;;;;;;5093814;28;20373;-75
2023/04/01 04:24:15;;;;;;;5.60;3.35;;;9.70;99.90;;;;;;5093265;28;20095;-74
2023/04/01 04:26:40;;;;;;;5.38;3.50;;;9.70;99.90;;;;;;5093026;28;20087;-75
2023/04/01 04:29:06;;;;;;;5.25;3.80;;;9.70;99.90;;;;;;5093819;28;20051;-75
2023/04/01 04:31:32;;;;;;;10.18;4.63;;;9.70;99.90;;;;;;5075717;28;20066;-75
2023/04/01 04:34:00;;;;;;;6.82;4.43;;;9.70;99.90;;;;;;5093277;28;20552;-75
2023/04/01 04:36:26;;;;;;;7.32;5.20;;;9.70;99.90;;;;;;5093543;28;20439;-75
2023/04/01 04:38:52;;;;;;;7.80;5.13;;;9.70;99.90;;;;;;5075480;28;20122;-74
2023/04/01 04:41:19;;;;;;;8.10;5.00;;;9.70;99.90;;;;;;5075429;28;20044;-75
2023/04/01 04:43:54;;;;;;;8.48;5.03;;;9.70;99.90;;;;;;5075325;28;20044;-75
2023/04/01 04:46:20;;;;;;;8.00;5.05;;;9.70;99.90;;;;;;5093153;28;20084;-75
2023/04/01 04:48:46;;;;;;;8.60;5.43;;;9.70;99.90;;;;;;5093640;28;20048;-75
2023/04/01 04:51:17;;;;;;;7.93;5.40;;;9.70;99.90;;;;;;5093150;28;20059;-75
2023/04/01 04:53:43;;;;;;;9.73;6.05;;;9.80;99.90;;;;;;5075210;28;20140;-74
2023/04/01 04:56:09;;;;;;;6.95;5.00;;;9.80;99.90;;;;;;5092797;28;20529;-75
2023/04/01 04:58:35;;;;;;;8.90;5.43;;;9.70;99.90;;;;;;5093043;28;20052;-75
2023/04/01 05:01:13;;;;;;;7.75;5.63;;;9.70;99.90;;;;;;5096005;28;20040;-74
2023/04/01 05:03:39;;;;;;;9.00;5.97;;;9.80;99.90;;;;;;5096848;28;20600;-74
2023/04/01 05:06:06;;;;;;;8.68;5.47;;;9.70;99.90;;;;;;5096827;28;20048;-75
2023/04/01 05:08:32;;;;;;;8.88;5.78;;;9.70;99.90;;;;;;5097292;28;20052;-75
2023/04/01 05:10:58;;;;;;;8.40;5.43;;;9.70;99.90;;;;;;5097269;28;20054;-76
2023/04/01 05:13:24;;;;;;;7.47;5.22;;;9.70;99.90;;;;;;5097247;28;20052;-75
2023/04/01 05:15:50;;;;;;;8.50;5.70;;;9.70;99.90;;;;;;5078371;28;20101;-75
2023/04/01 05:18:16;;;;;;;7.70;4.85;;;9.70;99.90;;;;;;5096538;28;20052;-75
2023/04/01 05:20:49;;;;;;;8.13;5.45;;;9.80;99.90;;;;;;5096015;28;20044;-75
2023/04/01 05:23:15;;;;;;;9.13;5.38;;;9.80;99.90;;;;;;5096245;28;20050;-75
2023/04/01 05:25:41;;;;;;;7.47;5.03;;;9.80;99.90;;;;;;5078074;28;20042;-75
2023/04/01 05:28:06;;;;;;;8.65;6.15;;;9.80;99.90;;;;;;5096281;28;20127;-75
2023/04/01 05:30:32;;;;;;;9.43;5.80;;;9.80;99.90;;;;;;5096346;28;20071;-75
2023/04/01 05:32:58;;;;;;;9.63;6.07;;;9.80;99.90;;;;;;5096745;28;20047;-75
2023/04/01 05:35:24;;;;;;;8.73;5.95;;;9.80;99.90;;;;;;5079083;28;20059;-76
2023/04/01 05:37:50;;;;;;;9.15;5.90;;;9.80;99.90;;;;;;5096225;28;20067;-76
2023/04/01 05:40:16;;;;;;;8.60;5.53;;;9.80;99.90;;;;;;5096643;28;20048;-76
2023/04/01 05:42:42;;;;;;;8.63;5.38;;;9.90;99.90;;;;;;5096590;28;20048;-76
2023/04/01 05:45:08;;;;;;;8.40;5.40;;;9.90;99.90;;;;;;5095954;28;20043;-75
2023/04/01 05:47:34;;;;;;;9.00;6.00;;;9.90;99.90;;;;;;5096640;28;20044;-75
2023/04/01 05:50:00;;;;;;;7.97;5.45;;;9.90;99.90;;;;;;5096204;28;20044;-75
2023/04/01 05:52:26;;;;;;;9.73;5.95;;;9.90;99.90;;;;;;5096436;28;20040;-75
2023/04/01 05:54:51;;;;;;;7.93;5.03;;;9.90;99.90;;;;;;5096142;28;20073;-75
2023/04/01 05:57:17;;;;;;;7.68;5.20;;;9.90;99.90;;;;;;5078753;28;20048;-75
2023/04/01 05:59:43;;;;;;;7.40;4.72;;;9.90;99.90;;;;;;5077970;28;20489;-75
2023/04/01 06:02:10;;;;;;;7.47;5.35;;;9.90;99.90;;;;;;5095661;28;20074;-75
2023/04/01 06:04:39;;;;;;;7.30;4.97;;;9.90;99.90;;;;;;5095788;28;20365;-75
2023/04/01 06:07:17;;;;;;;7.00;5.22;;;9.90;99.90;;;;;;5096194;28;20426;-74
2023/04/01 06:09:44;;;;;;;8.85;5.28;;;10.00;99.90;;;;;;5095730;28;20140;-75
2023/04/01 06:12:20;;;;;;;9.73;5.50;;;10.00;99.90;;;;;;5095526;28;20044;-75
2023/04/01 06:15:04;;;;;;;8.50;5.50;;;10.00;99.90;;;;;;5096126;28;20381;-68
2023/04/01 06:18:03;;;;;;;7.85;4.55;;;10.00;99.90;;;;;;5095997;28;20102;-67
2023/04/01 06:20:44;;;;;;;7.00;4.63;;;10.00;99.90;;;;;;5096208;28;20071;-67
2023/04/01 06:23:27;;;;;;;7.35;4.60;;;10.00;99.90;;;;;;5095318;28;20056;-67
2023/04/01 06:26:25;;;;;;;6.05;4.28;;;10.00;99.90;;;;;;5094814;28;20557;-67
2023/04/01 06:29:20;;;;;;;6.05;4.13;;;10.00;99.90;;;;;;5077248;28;20048;-68
2023/04/01 06:32:12;;;;;;;6.95;4.07;;;10.00;99.90;;;;;;5096060;28;20079;-67
2023/04/01 06:35:23;;;;;;;6.30;4.03;;;10.10;99.90;;;;;;5095217;28;20047;-68
2023/04/01 06:38:07;;;;;;;6.13;4.40;;;10.10;99.90;;;;;;5090330;28;20128;-68
2023/04/01 06:40:45;;;;;;;6.35;3.83;;;10.00;99.90;;;;;;5095033;28;20052;-69
2023/04/01 06:43:13;;;;;;;6.43;3.60;;;10.10;99.90;;;;;;5095009;28;20051;-68
2023/04/01 06:46:00;;;;;;;6.32;4.28;;;10.10;99.90;;;;;;5094830;28;20044;-68
2023/04/01 06:49:13;;;;;;;5.95;3.85;;;10.10;99.90;;;;;;5095706;28;20048;-68
2023/04/01 06:51:45;;;;;;;5.47;3.63;;;10.10;99.90;;;;;;4992921;28;20142;-67
2023/04/01 06:54:37;;;;;;;6.05;3.60;;;10.10;99.90;;;;;;4993342;28;20046;-67
2023/04/01 06:57:27;;;;;;;4.70;3.05;;;10.10;99.90;;;;;;5045124;28;20176;-67
2023/04/01 06:59:56;;;;;;;6.10;3.40;;;10.10;99.90;;;;;;5077664;28;20495;-67
2023/04/01 07:02:26;;;;;;;5.53;3.13;;;10.10;99.90;;;;;;5094588;28;20043;-68
2023/04/01 07:04:55;;;;;;;5.40;3.47;;;10.20;99.90;;;;;;5093981;28;20039;-67
2023/04/01 07:07:42;;;;;;;5.90;3.47;;;10.20;99.90;;;;;;5077112;28;20055;-74
2023/04/01 07:10:25;;;;;;;5.03;3.00;;;10.30;99.90;;;;;;5077150;28;20054;-74
2023/04/01 07:12:55;;;;;;;5.25;3.10;;;10.30;99.90;;;;;;5094245;28;20088;-74
2023/04/01 07:15:28;;;;;;;4.30;2.70;;;10.30;99.90;;;;;;5095005;28;20039;-73
2023/04/01 07:18:01;;;;;;;4.68;2.90;;;10.30;99.90;;;;;;5059274;28;20416;-74
2023/04/01 07:20:31;;;;;;;4.38;2.45;;;10.30;99.90;;;;;;5094157;28;20052;-72
2023/04/01 07:23:00;;;;;;;4.30;2.53;;;10.30;99.90;;;;;;5093528;28;20056;-72
2023/04/01 07:25:31;;;;;;;4.57;1.92;;;10.30;99.90;;;;;;5075776;28;20091;-73
2023/04/01 07:28:16;;;;;;;3.72;2.35;;;10.30;99.90;;;;;;5094073;28;20044;-74
2023/04/01 07:31:06;;;;;;;4.57;2.20;;;10.30;99.90;;;;;;5094586;28;20044;-73
2023/04/01 07:33:41;;;;;;;3.90;2.50;;;10.30;99.90;;;;;;5093823;28;20136;-74
2023/04/01 07:36:26;;;;;;;3.15;2.10;;;10.30;99.90;;;;;;5093983;28;20133;-74
2023/04/01 07:38:58;;;;;;;3.57;2.10;;;10.20;99.90;;;;;;5042583;28;20408;-74
2023/04/01 07:41:49;;;;;;;3.70;2.50;;;10.30;99.90;;;;;;5093721;28;20043;-74
2023/04/01 07:44:25;;;;;;;3.60;2.15;;;10.20;99.90;;;;;;5076116;28;20036;-75
2023/04/01 07:47:18;;;;;;;4.63;2.70;;;10.30;99.90;;;;;;5093789;28;20047;-74
2023/04/01 07:50:01;;;;;;;5.85;2.80;;;10.30;99.90;;;;;;5093706;28;20149;-74
2023/04/01 07:52:50;;;;;;;4.47;2.80;;;10.30;99.90;;;;;;5076147;28;20047;-73
2023/04/01 07:55:40;;;;;;;4.47;2.45;;;10.30;99.90;;;;;;5094090;28;20048;-73
2023/04/01 07:58:21;;;;;;;4.25;2.40;;;10.30;99.90;;;;;;5094056;28;20051;-73
2023/04/01 08:01:10;;;;;;;4.35;2.72;;;10.30;99.90;;;;;;5094132;28;20042;-72
2023/04/01 08:04:09;;;;;;;4.90;2.42;;;10.40;99.90;;;;;;5076058;28;20044;-72
2023/04/01 08:06:44;;;;;;;5.03;2.50;;;10.40;99.90;;;;;;5093492;28;20052;-72
2023/04/01 08:09:34;;;;;;;3.80;2.10;;;10.40;99.90;;;;;;5094201;28;20099;-73
2023/04/01 08:12:14;;;;;;;3.00;1.77;;;10.40;99.90;;;;;;5093436;28;20056;-73
2023/04/01 08:14:46;;;;;;;2.45;1.42;;;10.50;99.90;;;;;;5094051;28;20177;-73
2023/04/01 08:17:39;;;;;;;2.75;1.23;;;10.50;99.90;;;;;;5093418;28;20060;-73
2023/04/01 08:20:14;;;;;;;2.85;1.30;;;10.60;99.90;;;;;;5093891;28;20040;-73
2023/04/01 08:22:42;;;;;;;2.17;1.30;;;10.70;99.90;;;;;;5076345;28;20498;-73
2023/04/01 08:25:20;;;;;;;2.90;1.40;;;10.80;99.90;;;;;;5093605;28;20152;-73
2023/04/01 08:27:56;;;;;;;2.65;1.13;;;10.90;99.90;;;;;;5093061;28;20484;-73
2023/04/01 08:30:27;;;;;;;;;;;11.00;99.90;;;;;;5093503;28;20040;-73
2023/04/01 08:33:19;;;;;;;2.60;0.75;;;11.00;99.90;;;;;;5094067;28;19959;-73
2023/04/01 08:36:16;;;;;;;1.77;0.90;;;11.00;99.90;;;;;;5096014;28;20040;-73
2023/04/01 08:38:55;;;;;;;1.25;0.65;;;11.10;99.90;;;;;;5097595;28;20398;-72
2023/04/01 08:42:02;;;;;;;1.40;0.60;;;11.10;99.90;;;;;;5079512;28;20044;-72
2023/04/01 08:44:34;;;;;;;2.45;0.90;;;11.30;99.90;;;;;;5080003;28;20052;-72
2023/04/01 08:47:53;;;;;;;2.40;1.00;;;11.40;99.90;;;;;;5079577;28;20075;-73
2023/04/01 08:50:40;;;;;;;3.00;1.80;;;11.50;99.90;;;;;;4995259;28;20136;-73
2023/04/01 08:53:47;;;;;;;2.80;1.75;;;11.60;99.90;;;;;;4979604;28;20539;-72
2023/04/01 08:56:37;;;;;;;3.30;1.73;;;11.70;99.90;;;;;;5085621;28;20048;-74
2023/04/01 08:59:15;;;;;;;3.00;1.92;;;11.80;99.90;;;;;;5096576;28;20488;-73
2023/04/01 09:01:43;;;;;;;5.30;2.40;;;11.90;99.90;;;;;;5096832;28;20051;-72
2023/04/01 09:05:06;;;;;;;3.80;2.40;;;11.90;99.90;;;;;;5096800;28;20048;-73
2023/04/01 09:07:50;;;;;;;3.95;2.60;;;12.00;99.90;;;;;;4994945;28;20086;-75
2023/04/01 09:10:57;;;;;;;4.20;2.47;;;11.90;99.90;;;;;;4995475;28;20054;-73
2023/04/01 09:13:30;;;;;;;3.90;2.20;;;12.00;99.90;;;;;;5096649;28;20100;-72
2023/04/01 09:16:05;;;;;;;4.53;2.75;;;12.00;99.90;;;;;;5079473;28;20117;-73
2023/04/01 09:18:46;;;;;;;4.40;2.55;;;12.00;99.90;;;;;;5097372;28;20451;-72
2023/04/01 09:21:30;;;;;;;4.75;2.85;;;12.10;99.90;;;;;;5096496;28;20090;-73
2023/04/01 09:24:14;;;;;;;4.95;3.25;;;12.20;99.90;;;;;;5078311;28;20492;-74
2023/04/01 09:26:52;;;;;;;4.68;2.92;;;12.20;99.90;;;;;;5096328;28;20058;-73
2023/04/01 09:29:45;;;;;;;4.10;2.88;;;12.20;99.90;;;;;;5078449;28;20079;-74
2023/04/01 09:32:39;;;;;;;6.80;3.28;;;12.30;99.90;;;;;;5096925;28;20125;-74
2023/04/01 09:35:36;;;;;;;4.53;3.10;;;12.30;99.90;;;;;;5096787;28;20037;-72
2023/04/01 09:38:22;;;;;;;4.32;2.70;;;12.60;99.90;;;;;;5096217;28;20040;-75
2023/04/01 09:40:58;;;;;;;4.57;2.80;;;12.70;99.90;;;;;;5078747;28;20040;-73
2023/04/01 09:43:50;;;;;;;4.45;2.60;;;12.80;99.90;;;;;;5078724;28;20364;-74
2023/04/01 09:46:48;;;;;;;4.03;2.80;;;13.00;99.90;;;;;;5095096;28;20051;-75
2023/04/01 09:49:29;;;;;;;4.05;2.33;;;13.10;99.90;;;;;;5095754;28;20090;-72
2023/04/01 09:52:36;;;;;;;3.70;2.80;;;13.10;99.90;;;;;;5096778;28;20151;-72
2023/04/01 09:55:11;;;;;;;3.53;2.53;;;13.20;99.90;;;;;;5095724;28;20040;-75
2023/04/01 09:58:13;;;;;;;4.40;2.70;;;13.40;99.90;;;;;;5077825;28;20091;-74
2023/04/01 10:00:48;;;;;;;3.72;2.50;;;13.40;99.90;;;;;;5095778;28;20395;-72
2023/04/01 10:03:30;;;;;;;3.28;2.40;;;13.40;99.90;;;;;;5077971;28;20134;-73
2023/04/01 10:06:26;;;;;;;3.60;2.42;;;13.40;99.90;;;;;;5095958;28;20044;-71
2023/04/01 10:09:00;;;;;;;4.78;2.90;;;13.30;99.90;;;;;;5096373;28;20040;-72
2023/04/01 10:12:01;;;;;;;4.28;2.83;;;13.20;99.90;;;;;;5077698;28;20044;-72
2023/04/01 10:15:00;;;;;;;6.05;3.35;;;13.10;99.90;;;;;;5010646;28;20048;-72
2023/04/01 10:17:25;;;;;;;4.28;3.38;;;13.10;99.90;;;;;;5095358;28;20139;-73
2023/04/01 10:20:10;;;;;;;4.47;3.03;;;13.10;99.90;;;;;;5095366;28;20194;-74
2023/04/01 10:22:50;;;;;;;4.32;3.22;;;13.00;99.90;;;;;;5077468;28;20044;-75
2023/04/01 10:25:28;;;;;;;4.72;3.20;;;13.00;99.90;;;;;;5095775;28;20040;-75
2023/04/01 10:28:31;;;;;;;4.57;3.03;;;12.90;99.90;;;;;;5096183;28;20148;-74
2023/04/01 10:31:17;;;;;;;4.22;2.55;;;12.80;99.90;;;;;;5097175;28;20054;-76
2023/04/01 10:33:58;;;;;;;4.53;3.05;;;12.70;99.90;;;;;;5096012;28;20084;-76
2023/04/01 10:36:51;;;;;;;4.40;3.03;;;12.70;99.90;;;;;;5095834;28;20048;-74
2023/04/01 10:39:54;;;;;;;5.25;3.03;;;12.70;99.90;;;;;;5095027;28;20131;-75
2023/04/01 10:42:38;;;;;;;5.10;2.95;;;12.70;99.90;;;;;;5095759;28;20048;-73
2023/04/01 10:45:22;;;;;;;4.22;2.90;;;12.60;99.90;;;;;;5095168;28;20436;-74
2023/04/01 10:48:09;;;;;;;3.83;2.83;;;12.50;99.90;;;;;;5095390;28;20055;-73
2023/04/01 10:51:01;;;;;;;4.90;3.10;;;12.50;99.90;;;;;;5095452;28;20055;-73
2023/04/01 10:53:42;;;;;;;4.68;3.33;;;12.50;99.90;;;;;;5094856;28;20044;-74
2023/04/01 10:56:29;;;;;;;5.60;3.95;;;12.50;99.90;;;;;;5094616;28;20040;-71
2023/04/01 10:59:04;;;;;;;7.35;4.40;;;12.40;99.90;;;;;;5094650;28;20075;-70
2023/04/01 11:01:51;;;;;;;6.53;4.50;;;12.50;99.90;;;;;;5094619;28;20055;-71
2023/04/01 11:05:05;;;;;;;6.80;5.18;;;12.60;99.90;;;;;;5076892;28;20048;-71
2023/04/01 11:07:49;;;;;;;6.50;4.88;;;12.70;99.90;;;;;;5085699;28;20052;-72
2023/04/01 11:10:33;;;;;;;7.40;5.47;;;12.90;99.90;;;;;;5094857;28;20043;-72
2023/04/01 11:13:02;;;;;;;4.35;2.70;;;13.10;99.90;;;;;;5094272;28;20519;-73
2023/04/01 11:15:39;;;;;;;4.47;3.00;;;13.10;99.90;;;;;;5094240;28;20063;-72
2023/04/01 11:18:08;;;;;;;3.20;2.38;;;13.00;99.90;;;;;;5095039;28;20060;-72
2023/04/01 11:20:43;;;;;;;2.95;2.28;;;12.90;99.90;;;;;;5094143;28;20101;-73
2023/04/01 11:23:43;;;;;;;3.13;2.53;;;12.70;99.90;;;;;;5095021;28;20040;-73
2023/04/01 11:26:30;;;;;;;3.10;2.50;;;12.60;99.90;;;;;;5076561;28;20058;-72
2023/04/01 11:29:01;;;;;;;3.42;2.33;;;12.30;99.90;;;;;;5076155;28;20101;-73
2023/04/01 11:31:49;;;;;;;2.95;2.40;;;12.10;99.90;;;;;;5094006;28;20052;-73
2023/04/01 11:34:24;;;;;;;3.20;2.40;;;12.00;99.90;;;;;;5076115;28;20094;-73
2023/04/01 11:37:13;;;;;;;3.65;2.30;;;11.90;99.90;;;;;;5093678;28;20505;-73
2023/04/01 11:40:16;;;;;;;3.30;2.30;;;11.80;99.90;;;;;;5093949;28;20044;-73
2023/04/01 11:42:53;;;;;;;2.72;2.03;;;11.60;99.90;;;;;;5093937;28;20048;-72
2023/04/01 11:45:42;;;;;;;3.00;2.13;;;11.60;99.90;;;;;;5094079;28;20462;-75
2023/04/01 11:48:24;;;;;;;3.17;1.90;;;11.50;99.90;;;;;;5093895;28;20054;-75
2023/04/01 11:51:04;;;;;;;2.40;1.77;;;11.40;99.90;;;;;;5093895;28;20048;-75
2023/04/01 11:53:58;;;;;;;3.03;1.83;;;11.40;99.90;;;;;;5075904;28;20048;-76
2023/04/01 11:56:46;;;;;;;2.35;1.60;;;11.30;99.90;;;;;;5075743;28;20063;-75
2023/04/01 11:59:47;;;;;;;2.50;1.80;;;11.30;99.90;;;;;;5093617;28;20075;-75
2023/04/01 12:02:34;;;;;;;2.42;1.60;;;11.20;99.90;;;;;;5093617;28;20063;-75
2023/04/01 12:05:33;;;;;;;3.45;1.77;;;11.20;99.90;;;;;;5093379;28;20040;-75
2023/04/01 12:08:12;;;;;;;2.55;1.58;;;11.20;99.90;;;;;;5093620;28;20442;-75
2023/04/01 12:11:15;;;;;;;2.33;1.58;;;11.20;99.90;;;;;;5094094;28;20052;-75
2023/04/01 12:14:02;;;;;;;2.10;1.25;;;11.20;99.90;;;;;;5075337;28;20048;-75
2023/04/01 12:16:52;;;;;;;2.20;1.42;;;11.20;99.90;;;;;;5093294;28;20130;-75
2023/04/01 12:19:23;;;;;;;2.15;1.52;;;11.30;99.90;;;;;;5094094;28;20056;-74
2023/04/01 12:22:27;;;;;;;2.22;1.50;;;11.30;99.90;;;;;;5093362;28;20599;-75
2023/04/01 12:25:33;;;;;;;2.17;1.40;;;11.40;99.90;;;;;;5093134;28;20040;-75
2023/04/01 12:28:23;;;;;;;2.60;1.70;;;11.40;99.90;;;;;;5093900;28;20056;-75
2023/04/01 12:30:57;;;;;;;4.60;1.60;;;11.50;99.90;;;;;;5093858;28;20090;-75
2023/04/01 12:33:48;;;;;;;2.60;1.67;;;11.50;99.90;;;;;;5075513;28;20044;-75
2023/04/01 12:36:18;;;;;;;2.60;1.70;;;11.60;99.90;;;;;;5093821;28;20381;-75
2023/04/01 12:39:18;;;;;;;2.72;1.70;;;11.60;99.90;;;;;;5093312;28;20055;-75
2023/04/01 12:42:21;;;;;;;2.22;1.40;;;11.50;99.90;;;;;;5093218;28;20052;-74
2023/04/01 12:45:25;;;;;;;2.30;1.30;;;11.40;99.90;;;;;;5093112;28;20044;-74
2023/04/01 12:48:20;;;;;;;2.35;1.50;;;11.40;99.90;;;;;;5093135;28;20152;-74
2023/04/01 12:51:06;;;;;;;2.22;1.60;;;11.30;99.90;;;;;;5053819;28;20131;-74
2023/04/01 12:53:50;;;;;;;2.60;1.50;;;11.20;99.90;;;;;;5092629;28;20531;-75
2023/04/01 12:56:54;;;;;;;2.20;1.40;;;11.10;99.90;;;;;;5093310;28;20054;-74
2023/04/01 12:59:22;;;;;;;2.22;1.50;;;11.10;99.90;;;;;;5091058;28;20066;-75
2023/04/01 13:02:13;;;;;;;2.30;1.40;;;10.90;99.90;;;;;;5092985;28;20097;-74
2023/04/01 13:05:10;;;;;;;2.40;1.60;;;10.90;99.90;;;;;;5092996;28;20048;-76
2023/04/01 13:08:06;;;;;;;2.63;1.60;;;10.80;99.90;;;;;;5093001;28;20051;-74
2023/04/01 13:11:02;;;;;;;2.50;1.70;;;10.80;99.90;;;;;;5092810;28;20489;-76
2023/04/01 13:13:50;;;;;;;2.50;1.70;;;10.70;99.90;;;;;;5033987;28;20300;-76
2023/04/01 13:16:33;;;;;;;2.50;1.83;;;10.70;99.90;;;;;;5092810;28;20036;-77
2023/04/01 13:19:28;;;;;;;2.40;1.70;;;10.70;99.90;;;;;;5092920;28;20056;-78
2023/04/01 13:22:05;;;;;;;2.45;1.80;;;10.80;99.90;;;;;;5095250;28;20476;-79
2023/04/01 13:24:51;;;;;;;2.80;1.83;;;10.80;99.90;;;;;;5096926;28;20040;-77
2023/04/01 13:27:26;;;;;;;3.17;1.83;;;10.80;99.90;;;;;;5096755;28;20048;-75
2023/04/01 13:29:54;;;;;;;2.67;1.45;;;10.70;99.90;;;;;;5097023;28;20400;-77
2023/04/01 13:32:33;;;;;;;2.50;1.70;;;10.60;99.90;;;;;;5078859;28;20105;-77
2023/04/01 13:35:20;;;;;;;2.28;1.45;;;10.50;99.90;;;;;;5079329;28;20047;-75
2023/04/01 13:37:54;;;;;;;2.60;1.80;;;10.40;99.90;;;;;;5096323;28;20084;-75
2023/04/01 13:40:37;;;;;;;2.75;1.70;;;10.30;99.90;;;;;;5078577;28;20044;-75
2023/04/01 13:43:23;;;;;;;2.80;1.63;;;10.30;99.90;;;;;;5097024;28;20354;-76
2023/04/01 13:46:01;;;;;;;2.47;1.80;;;10.20;99.90;;;;;;5078628;28;20055;-75
2023/04/01 13:48:52;;;;;;;3.50;1.67;;;10.20;99.90;;;;;;5096487;28;20628;-76